sensor_id;sensor_type;location;lat;lon;timestamp;pressure;altitude;pressure_sealevel;temperature;humidity
74437;BME280;62868;52.360;30.424;2023-03-16T00:04:22;1019.4;;;6.9;60.5
74437;BME280;62868;52.360;30.424;2023-03-16T00:08:30;1019.4;;;6.9;60.4
74437;BME280;62868;52.360;30.424;2023-03-16T00:14:22;1019.3;;;6.9;60.3
74437;BME280;62868;52.360;30.424;2023-03-16T00:19:08;1019.3;;;6.8;60.2
74437;BME280;62868;52.360;30.424;2023-03-16T00:23:30;1019.4;;;6.8;60.1
74437;BME280;62868;52.360;30.424;2023-03-16T00:28:48;1019.5;;;6.7;60.1
74437;BME280;62868;52.360;30.424;2023-03-16T00:34:22;1019.5;;;6.6;60.1
74437;BME280;62868;52.360;30.424;2023-03-16T00:38:39;1019.4;;;6.5;60.1
74437;BME280;62868;52.360;30.424;2023-03-16T00:43:54;1019.5;;;6.5;60.2
74437;BME280;62868;52.360;30.424;2023-03-16T00:49:22;1019.5;;;6.4;60.2
74437;BME280;62868;52.360;30.424;2023-03-16T00:53:31;1019.4;;;6.4;60.1
74437;BME280;62868;52.360;30.424;2023-03-16T00:58:44;1019.4;;;6.3;60.2
74437;BME280;62868;52.360;30.424;2023-03-16T01:03:52;1019.4;;;6.3;60.3
74437;BME280;62868;52.360;30.424;2023-03-16T01:08:40;1019.4;;;6.3;60.3
74437;BME280;62868;52.360;30.424;2023-03-16T01:14:08;1019.5;;;6.3;60.2
74437;BME280;62868;52.360;30.424;2023-03-16T01:18:52;1019.5;;;6.1;60.4
74437;BME280;62868;52.360;30.424;2023-03-16T01:23:50;1019.6;;;6;60.5
74437;BME280;62868;52.360;30.424;2023-03-16T01:29:06;1019.7;;;5.9;60.5
74437;BME280;62868;52.360;30.424;2023-03-16T01:34:22;1019.7;;;5.9;60.5
74437;BME280;62868;52.360;30.424;2023-03-16T01:38:30;1019.7;;;5.8;60.6
74437;BME280;62868;52.360;30.424;2023-03-16T01:44:23;1019.8;;;5.9;60.6
74437;BME280;62868;52.360;30.424;2023-03-16T01:48:30;1019.9;;;5.9;60.6
74437;BME280;62868;52.360;30.424;2023-03-16T01:54:05;1020;;;6;60.6
74437;BME280;62868;52.360;30.424;2023-03-16T01:59:07;1020;;;5.9;60.7
74437;BME280;62868;52.360;30.424;2023-03-16T02:03:38;1020.1;;;5.9;60.7
74437;BME280;62868;52.360;30.424;2023-03-16T02:09:06;1020;;;5.9;60.7
74437;BME280;62868;52.360;30.424;2023-03-16T02:14:07;1020.1;;;5.8;60.7
74437;BME280;62868;52.360;30.424;2023-03-16T02:18:38;1020.1;;;5.7;60.8
74437;BME280;62868;52.360;30.424;2023-03-16T02:24:08;1020.1;;;5.7;60.8
74437;BME280;62868;52.360;30.424;2023-03-16T02:29:25;1020.1;;;5.6;60.9
74437;BME280;62868;52.360;30.424;2023-03-16T02:33:38;1020.1;;;5.5;60.9
74437;BME280;62868;52.360;30.424;2023-03-16T02:39:06;1020.1;;;5.5;61
74437;BME280;62868;52.360;30.424;2023-03-16T02:44:08;1020.1;;;5.5;61
74437;BME280;62868;52.360;30.424;2023-03-16T02:49:05;1020.1;;;5.5;61
74437;BME280;62868;52.360;30.424;2023-03-16T02:53:52;1020.1;;;5.5;61.1
74437;BME280;62868;52.360;30.424;2023-03-16T02:58:54;1020.3;;;5.5;61.1
74437;BME280;62868;52.360;30.424;2023-03-16T03:04:00;1020.3;;;5.5;61.1
74437;BME280;62868;52.360;30.424;2023-03-16T03:09:22;1020.4;;;5.6;61.1
74437;BME280;62868;52.360;30.424;2023-03-16T03:13:30;1020.4;;;5.6;61.1
74437;BME280;62868;52.360;30.424;2023-03-16T03:19:22;1020.3;;;5.5;61.2
74437;BME280;62868;52.360;30.424;2023-03-16T03:24:08;1020.3;;;5.4;61.3
74437;BME280;62868;52.360;30.424;2023-03-16T03:29:08;1020.4;;;5.3;61.4
74437;BME280;62868;52.360;30.424;2023-03-16T03:33:50;1020.5;;;5.3;61.4
74437;BME280;62868;52.360;30.424;2023-03-16T03:39:22;1020.6;;;5.3;61.4
74437;BME280;62868;52.360;30.424;2023-03-16T03:43:46;1020.6;;;5.2;61.5
74437;BME280;62868;52.360;30.424;2023-03-16T03:49:04;1020.6;;;5.2;61.6
74437;BME280;62868;52.360;30.424;2023-03-16T03:54:22;1020.6;;;5.1;61.7
74437;BME280;62868;52.360;30.424;2023-03-16T03:58:44;1020.6;;;5.1;61.8
74437;BME280;62868;52.360;30.424;2023-03-16T04:03:52;1020.7;;;5.2;61.8
74437;BME280;62868;52.360;30.424;2023-03-16T04:09:22;1020.8;;;5.2;61.8
74437;BME280;62868;52.360;30.424;2023-03-16T04:14:22;1020.8;;;5.2;61.8
74437;BME280;62868;52.360;30.424;2023-03-16T04:19:08;1020.8;;;5.1;61.8
74437;BME280;62868;52.360;30.424;2023-03-16T04:23:30;1020.8;;;5;62
74437;BME280;62868;52.360;30.424;2023-03-16T04:28:38;1020.8;;;5;62
74437;BME280;62868;52.360;30.424;2023-03-16T04:34:04;1020.9;;;5;62.1
74437;BME280;62868;52.360;30.424;2023-03-16T04:39:22;1020.9;;;5;62.1
74437;BME280;62868;52.360;30.424;2023-03-16T04:43:38;1020.9;;;5;62.2
74437;BME280;62868;52.360;30.424;2023-03-16T04:48:30;1021;;;5;62.2
74437;BME280;62868;52.360;30.424;2023-03-16T04:54:08;1021.1;;;5.1;62.2
74437;BME280;62868;52.360;30.424;2023-03-16T04:59:20;1021.2;;;5.1;62.3
74437;BME280;62868;52.360;30.424;2023-03-16T05:03:50;1021.3;;;5.1;62.3
74437;BME280;62868;52.360;30.424;2023-03-16T05:08:38;1021.3;;;5.1;62.3
74437;BME280;62868;52.360;30.424;2023-03-16T05:14:22;1021.4;;;5.2;62.2
74437;BME280;62868;52.360;30.424;2023-03-16T05:18:52;1021.4;;;5.3;62.2
74437;BME280;62868;52.360;30.424;2023-03-16T05:23:38;1021.5;;;5.3;62.2
74437;BME280;62868;52.360;30.424;2023-03-16T05:28:50;1021.5;;;5.3;62.3
74437;BME280;62868;52.360;30.424;2023-03-16T05:34:22;1021.5;;;5.3;62.3
74437;BME280;62868;52.360;30.424;2023-03-16T05:38:30;1021.6;;;5.3;62.3
74437;BME280;62868;52.360;30.424;2023-03-16T05:43:46;1021.8;;;5.4;62.3
74437;BME280;62868;52.360;30.424;2023-03-16T05:48:54;1021.8;;;5.4;62.3
74437;BME280;62868;52.360;30.424;2023-03-16T05:54:04;1021.9;;;5.4;62.3
74437;BME280;62868;52.360;30.424;2023-03-16T05:58:30;1022;;;5.3;62.3
74437;BME280;62868;52.360;30.424;2023-03-16T06:04:06;1022;;;5.3;62.4
74437;BME280;62868;52.360;30.424;2023-03-16T06:09:20;1021.9;;;5.2;62.4
74437;BME280;62868;52.360;30.424;2023-03-16T06:14:20;1021.9;;;5.3;62.3
74437;BME280;62868;52.360;30.424;2023-03-16T06:18:36;1021.9;;;5.3;62.4
74437;BME280;62868;52.360;30.424;2023-03-16T06:24:20;1022.1;;;5.3;62.3
74437;BME280;62868;52.360;30.424;2023-03-16T06:29:06;1022.2;;;5.4;62.3
74437;BME280;62868;52.360;30.424;2023-03-16T06:33:44;1022.3;;;5.5;62.2
74437;BME280;62868;52.360;30.424;2023-03-16T06:38:48;1022.3;;;5.5;62.3
74437;BME280;62868;52.360;30.424;2023-03-16T06:44:20;1022.3;;;5.5;62.2
74437;BME280;62868;52.360;30.424;2023-03-16T06:48:36;1022.4;;;5.6;62.1
74437;BME280;62868;52.360;30.424;2023-03-16T06:53:32;1022.4;;;5.7;62
74437;BME280;62868;52.360;30.424;2023-03-16T06:59:20;1022.5;;;5.9;61.9
74437;BME280;62868;52.360;30.424;2023-03-16T07:03:44;1022.5;;;6;61.8
74437;BME280;62868;52.360;30.424;2023-03-16T07:08:50;1022.5;;;6.1;61.7
74437;BME280;62868;52.360;30.424;2023-03-16T07:13:36;1022.6;;;6.2;61.6
74437;BME280;62868;52.360;30.424;2023-03-16T07:18:40;1022.6;;;6.1;61.6
74437;BME280;62868;52.360;30.424;2023-03-16T07:24:06;1022.5;;;6.2;61.5
74437;BME280;62868;52.360;30.424;2023-03-16T07:28:50;1022.5;;;6.2;61.4
74437;BME280;62868;52.360;30.424;2023-03-16T07:33:48;1022.6;;;6.3;61.3
74437;BME280;62868;52.360;30.424;2023-03-16T07:39:02;1022.6;;;6.3;61.3
74437;BME280;62868;52.360;30.424;2023-03-16T07:44:20;1022.7;;;6.4;61.2
74437;BME280;62868;52.360;30.424;2023-03-16T07:48:48;1022.9;;;6.3;61.2
74437;BME280;62868;52.360;30.424;2023-03-16T07:53:52;1022.9;;;6.3;61.2
74437;BME280;62868;52.360;30.424;2023-03-16T07:58:30;1023;;;6.4;61.1
74437;BME280;62868;52.360;30.424;2023-03-16T08:04:20;1023;;;6.4;61.1
74437;BME280;62868;52.360;30.424;2023-03-16T08:08:50;1023;;;6.3;61.2
74437;BME280;62868;52.360;30.424;2023-03-16T08:13:40;1023;;;6.2;61.2
74437;BME280;62868;52.360;30.424;2023-03-16T08:19:20;1022.9;;;6.1;61.2
74437;BME280;62868;52.360;30.424;2023-03-16T08:23:50;1022.9;;;6.1;61.2
74437;BME280;62868;52.360;30.424;2023-03-16T08:28:36;1023;;;6.1;61.2
74437;BME280;62868;52.360;30.424;2023-03-16T08:33:48;1023;;;6.2;61.1
74437;BME280;62868;52.360;30.424;2023-03-16T08:39:22;1023.1;;;6.3;61.1
74437;BME280;62868;52.360;30.424;2023-03-16T08:43:38;1023.2;;;6.3;61
74437;BME280;62868;52.360;30.424;2023-03-16T08:49:20;1023.2;;;6.4;61
74437;BME280;62868;52.360;30.424;2023-03-16T08:54:08;1023.2;;;6.3;61
74437;BME280;62868;52.360;30.424;2023-03-16T08:58:30;1023.2;;;6.4;61
74437;BME280;62868;52.360;30.424;2023-03-16T09:03:44;1023.3;;;6.6;60.8
74437;BME280;62868;52.360;30.424;2023-03-16T09:08:50;1023.4;;;6.7;60.7
74437;BME280;62868;52.360;30.424;2023-03-16T09:14:04;1023.4;;;6.7;60.7
74437;BME280;62868;52.360;30.424;2023-03-16T09:19:06;1023.5;;;6.7;60.7
74437;BME280;62868;52.360;30.424;2023-03-16T09:23:50;1023.6;;;6.5;60.7
74437;BME280;62868;52.360;30.424;2023-03-16T09:29:20;1023.6;;;6.5;60.7
74437;BME280;62868;52.360;30.424;2023-03-16T09:34:04;1023.6;;;6.4;60.8
74437;BME280;62868;52.360;30.424;2023-03-16T09:38:50;1023.6;;;6.5;60.7
74437;BME280;62868;52.360;30.424;2023-03-16T09:43:41;1023.6;;;6.5;60.6
74437;BME280;62868;52.360;30.424;2023-03-16T09:49:20;1023.6;;;6.5;60.6
74437;BME280;62868;52.360;30.424;2023-03-16T09:53:37;1023.7;;;6.5;60.6
74437;BME280;62868;52.360;30.424;2023-03-16T09:58:42;1023.8;;;6.5;60.6
74437;BME280;62868;52.360;30.424;2023-03-16T10:04:16;1023.8;;;6.7;60.5
74437;BME280;62868;52.360;30.424;2023-03-16T10:08:44;1023.9;;;6.7;60.4
74437;BME280;62868;52.360;30.424;2023-03-16T10:13:43;1023.9;;;6.8;60.4
74437;BME280;62868;52.360;30.424;2023-03-16T10:18:55;1023.9;;;6.7;60.3
74437;BME280;62868;52.360;30.424;2023-03-16T10:23:50;1024;;;6.8;60.2
74437;BME280;62868;52.360;30.424;2023-03-16T10:28:46;1024;;;6.7;60.2
74437;BME280;62868;52.360;30.424;2023-03-16T10:33:53;1024.1;;;6.6;60.2
74437;BME280;62868;52.360;30.424;2023-03-16T10:38:51;1024.1;;;6.7;60.1
74437;BME280;62868;52.360;30.424;2023-03-16T10:44:08;1024.1;;;6.7;60.2
74437;BME280;62868;52.360;30.424;2023-03-16T10:49:21;1024.2;;;6.7;60.1
74437;BME280;62868;52.360;30.424;2023-03-16T10:53:48;1024.1;;;6.7;60
74437;BME280;62868;52.360;30.424;2023-03-16T10:58:50;1024.1;;;6.7;60.1
74437;BME280;62868;52.360;30.424;2023-03-16T11:03:37;1024.1;;;6.8;60
74437;BME280;62868;52.360;30.424;2023-03-16T11:09:22;1024.2;;;6.8;59.9
74437;BME280;62868;52.360;30.424;2023-03-16T11:13:31;1024.2;;;6.7;59.9
74437;BME280;62868;52.360;30.424;2023-03-16T11:18:31;1024.1;;;6.6;59.9
74437;BME280;62868;52.360;30.424;2023-03-16T11:24:23;1024.2;;;6.6;59.9
74437;BME280;62868;52.360;30.424;2023-03-16T11:28:54;1024.2;;;6.6;59.8
74437;BME280;62868;52.360;30.424;2023-03-16T11:33:42;1024.2;;;6.5;59.9
74437;BME280;62868;52.360;30.424;2023-03-16T11:39:23;1024.2;;;6.5;59.9
74437;BME280;62868;52.360;30.424;2023-03-16T11:44:24;1024.3;;;6.6;59.8
74437;BME280;62868;52.360;30.424;2023-03-16T11:48:31;1024.3;;;6.5;59.8
74437;BME280;62868;52.360;30.424;2023-03-16T11:54:28;1024.4;;;6.4;59.9
74437;BME280;62868;52.360;30.424;2023-03-16T11:59:27;1024.5;;;6.5;59.8
74437;BME280;62868;52.360;30.424;2023-03-16T12:03:35;1024.5;;;6.4;59.9
74437;BME280;62868;52.360;30.424;2023-03-16T12:08:56;1024.6;;;6.4;59.9
74437;BME280;62868;52.360;30.424;2023-03-16T12:14:07;1024.6;;;6.3;59.9
74437;BME280;62868;52.360;30.424;2023-03-16T12:18:35;1024.6;;;6.3;60
74437;BME280;62868;52.360;30.424;2023-03-16T12:24:10;1024.7;;;6.3;59.9
74437;BME280;62868;52.360;30.424;2023-03-16T12:28:38;1024.7;;;6.3;59.9
74437;BME280;62868;52.360;30.424;2023-03-16T12:33:34;1024.8;;;6.3;59.8
74437;BME280;62868;52.360;30.424;2023-03-16T12:39:07;1024.8;;;6.2;59.8
74437;BME280;62868;52.360;30.424;2023-03-16T12:43:56;1024.9;;;6.2;59.7
74437;BME280;62868;52.360;30.424;2023-03-16T12:48:58;1025;;;6.2;59.7
74437;BME280;62868;52.360;30.424;2023-03-16T12:54:23;1025;;;6.1;59.6
74437;BME280;62868;52.360;30.424;2023-03-16T12:59:14;1025;;;6.1;59.6
74437;BME280;62868;52.360;30.424;2023-03-16T13:04:08;1025.1;;;6.1;59.6
74437;BME280;62868;52.360;30.424;2023-03-16T13:09:06;1025.2;;;5.9;59.6
74437;BME280;62868;52.360;30.424;2023-03-16T13:13:50;1025.2;;;6;59.5
74437;BME280;62868;52.360;30.424;2023-03-16T13:19:22;1025.2;;;6;59.5
74437;BME280;62868;52.360;30.424;2023-03-16T13:23:45;1025.4;;;6.1;59.4
74437;BME280;62868;52.360;30.424;2023-03-16T13:28:51;1025.4;;;6.1;59.4
74437;BME280;62868;52.360;30.424;2023-03-16T13:34:11;1025.5;;;6;59.5
74437;BME280;62868;52.360;30.424;2023-03-16T13:39:23;1025.5;;;6;59.4
74437;BME280;62868;52.360;30.424;2023-03-16T13:44:22;1025.6;;;5.9;59.5
74437;BME280;62868;52.360;30.424;2023-03-16T13:49:22;1025.7;;;5.8;59.5
74437;BME280;62868;52.360;30.424;2023-03-16T13:54:23;1025.7;;;5.7;59.6
74437;BME280;62868;52.360;30.424;2023-03-16T13:58:31;1025.7;;;5.6;59.7
74437;BME280;62868;52.360;30.424;2023-03-16T14:03:54;1025.7;;;5.6;59.8
74437;BME280;62868;52.360;30.424;2023-03-16T14:08:30;1025.7;;;5.6;59.8
74437;BME280;62868;52.360;30.424;2023-03-16T14:14:12;1025.7;;;5.5;59.9
74437;BME280;62868;52.360;30.424;2023-03-16T14:19:12;1025.7;;;5.5;60
74437;BME280;62868;52.360;30.424;2023-03-16T14:23:39;1025.8;;;5.4;59.9
74437;BME280;62868;52.360;30.424;2023-03-16T14:29:24;1025.8;;;5.5;60
74437;BME280;62868;52.360;30.424;2023-03-16T14:33:58;1025.9;;;5.4;60
74437;BME280;62868;52.360;30.424;2023-03-16T14:38:43;1026;;;5.3;60.1
74437;BME280;62868;52.360;30.424;2023-03-16T14:43:31;1026.1;;;5.3;60.2
74437;BME280;62868;52.360;30.424;2023-03-16T14:49:23;1026.1;;;5.4;60.2
74437;BME280;62868;52.360;30.424;2023-03-16T14:53:52;1026.1;;;5.3;60.3
74437;BME280;62868;52.360;30.424;2023-03-16T14:59:22;1026.2;;;5.4;60.3
74437;BME280;62868;52.360;30.424;2023-03-16T15:04:23;1026.2;;;5.4;60.4
74437;BME280;62868;52.360;30.424;2023-03-16T15:08:31;1026.3;;;5.4;60.4
74437;BME280;62868;52.360;30.424;2023-03-16T15:13:52;1026.4;;;5.3;60.5
74437;BME280;62868;52.360;30.424;2023-03-16T15:19:04;1026.3;;;5.2;60.7
74437;BME280;62868;52.360;30.424;2023-03-16T15:24:07;1026.5;;;5.1;60.8
74437;BME280;62868;52.360;30.424;2023-03-16T15:29:08;1026.5;;;5.1;60.8
74437;BME280;62868;52.360;30.424;2023-03-16T15:33:30;1026.6;;;5.1;60.9
74437;BME280;62868;52.360;30.424;2023-03-16T15:39:21;1026.7;;;5.1;61
74437;BME280;62868;52.360;30.424;2023-03-16T15:44:07;1026.8;;;5;61
74437;BME280;62868;52.360;30.424;2023-03-16T15:48:30;1026.9;;;4.9;61.1
74437;BME280;62868;52.360;30.424;2023-03-16T15:53:31;1027;;;4.8;61.3
74437;BME280;62868;52.360;30.424;2023-03-16T15:59:22;1027;;;4.7;61.4
74437;BME280;62868;52.360;30.424;2023-03-16T16:03:38;1027.1;;;4.7;61.4
74437;BME280;62868;52.360;30.424;2023-03-16T16:09:06;1027.2;;;4.6;61.5
74437;BME280;62868;52.360;30.424;2023-03-16T16:14:07;1027.3;;;4.6;61.6
74437;BME280;62868;52.360;30.424;2023-03-16T16:18:31;1027.4;;;4.5;61.6
74437;BME280;62868;52.360;30.424;2023-03-16T16:24:06;1027.4;;;4.5;61.7
74437;BME280;62868;52.360;30.424;2023-03-16T16:29:10;1027.5;;;4.4;61.8
74437;BME280;62868;52.360;30.424;2023-03-16T16:34:07;1027.7;;;4.5;61.8
74437;BME280;62868;52.360;30.424;2023-03-16T16:39:22;1027.8;;;4.5;61.8
74437;BME280;62868;52.360;30.424;2023-03-16T16:44:23;1027.8;;;4.5;61.8
74437;BME280;62868;52.360;30.424;2023-03-16T16:48:45;1027.9;;;4.4;61.8
74437;BME280;62868;52.360;30.424;2023-03-16T16:54:12;1027.9;;;4.4;61.8
74437;BME280;62868;52.360;30.424;2023-03-16T16:59:01;1028;;;4.4;61.7
74437;BME280;62868;52.360;30.424;2023-03-16T17:04:10;1028;;;4.4;61.7
74437;BME280;62868;52.360;30.424;2023-03-16T17:08:30;1028.1;;;4.4;61.5
74437;BME280;62868;52.360;30.424;2023-03-16T17:14:06;1028.2;;;4.4;61.5
74437;BME280;62868;52.360;30.424;2023-03-16T17:18:44;1028.2;;;4.4;61.3
74437;BME280;62868;52.360;30.424;2023-03-16T17:24:22;1028.3;;;4.4;61.1
74437;BME280;62868;52.360;30.424;2023-03-16T17:28:41;1028.4;;;4.4;61
74437;BME280;62868;52.360;30.424;2023-03-16T17:34:23;1028.5;;;4.4;60.9
74437;BME280;62868;52.360;30.424;2023-03-16T17:38:54;1028.5;;;4.4;60.9
74437;BME280;62868;52.360;30.424;2023-03-16T17:43:38;1028.6;;;4.3;61
74437;BME280;62868;52.360;30.424;2023-03-16T17:48:42;1028.7;;;4.2;61.1
74437;BME280;62868;52.360;30.424;2023-03-16T17:54:22;1028.8;;;4.1;61.2
74437;BME280;62868;52.360;30.424;2023-03-16T17:58:30;1028.9;;;3.9;61.3
74437;BME280;62868;52.360;30.424;2023-03-16T18:04:08;1028.9;;;3.9;61.3
74437;BME280;62868;52.360;30.424;2023-03-16T18:09:22;1028.9;;;3.8;61.4
74437;BME280;62868;52.360;30.424;2023-03-16T18:13:52;1029;;;3.8;61.5
74437;BME280;62868;52.360;30.424;2023-03-16T18:18:53;1029;;;3.7;61.5
74437;BME280;62868;52.360;30.424;2023-03-16T18:24:00;1029.1;;;3.7;61.6
74437;BME280;62868;52.360;30.424;2023-03-16T18:28:38;1029.1;;;3.7;61.7
74437;BME280;62868;52.360;30.424;2023-03-16T18:34:08;1029.2;;;3.6;61.8
74437;BME280;62868;52.360;30.424;2023-03-16T18:38:52;1029.2;;;3.6;62
74437;BME280;62868;52.360;30.424;2023-03-16T18:43:30;1029.2;;;3.5;62.1
74437;BME280;62868;52.360;30.424;2023-03-16T18:49:09;1029.2;;;3.4;62.2
74437;BME280;62868;52.360;30.424;2023-03-16T18:54:23;1029.3;;;3.4;62.4
74437;BME280;62868;52.360;30.424;2023-03-16T18:58:30;1029.3;;;3.4;62.4
74437;BME280;62868;52.360;30.424;2023-03-16T19:03:53;1029.3;;;3.3;62.5
74437;BME280;62868;52.360;30.424;2023-03-16T19:08:52;1029.3;;;3.3;62.6
74437;BME280;62868;52.360;30.424;2023-03-16T19:14:23;1029.4;;;3.3;62.7
74437;BME280;62868;52.360;30.424;2023-03-16T19:18:30;1029.4;;;3.2;62.8
74437;BME280;62868;52.360;30.424;2023-03-16T19:23:55;1029.5;;;3.1;62.9
74437;BME280;62868;52.360;30.424;2023-03-16T19:29:25;1029.5;;;3.1;63
74437;BME280;62868;52.360;30.424;2023-03-16T19:33:53;1029.6;;;3.1;63
74437;BME280;62868;52.360;30.424;2023-03-16T19:38:40;1029.6;;;3.2;63
74437;BME280;62868;52.360;30.424;2023-03-16T19:43:30;1029.6;;;3.2;63
74437;BME280;62868;52.360;30.424;2023-03-16T19:49:11;1029.6;;;3.2;63
74437;BME280;62868;52.360;30.424;2023-03-16T19:53:38;1029.6;;;3.3;62.9
74437;BME280;62868;52.360;30.424;2023-03-16T19:59:23;1029.7;;;3.3;62.9
74437;BME280;62868;52.360;30.424;2023-03-16T20:04:19;1029.8;;;3.4;62.8
74437;BME280;62868;52.360;30.424;2023-03-16T20:08:38;1029.8;;;3.4;62.8
74437;BME280;62868;52.360;30.424;2023-03-16T20:13:38;1029.8;;;3.4;62.7
74437;BME280;62868;52.360;30.424;2023-03-16T20:19:09;1029.8;;;3.4;62.6
74437;BME280;62868;52.360;30.424;2023-03-16T20:24:08;1029.9;;;3.4;62.5
74437;BME280;62868;52.360;30.424;2023-03-16T20:29:11;1029.9;;;3.4;62.4
74437;BME280;62868;52.360;30.424;2023-03-16T20:33:30;1029.9;;;3.4;62.3
74437;BME280;62868;52.360;30.424;2023-03-16T20:39:23;1029.9;;;3.4;62.3
74437;BME280;62868;52.360;30.424;2023-03-16T20:43:40;1029.9;;;3.4;62.3
74437;BME280;62868;52.360;30.424;2023-03-16T20:48:38;1029.9;;;3.4;62.3
74437;BME280;62868;52.360;30.424;2023-03-16T20:53:30;1029.9;;;3.4;62.3
74437;BME280;62868;52.360;30.424;2023-03-16T20:59:23;1029.9;;;3.3;62.4
74437;BME280;62868;52.360;30.424;2023-03-16T21:03:38;1030;;;3.3;62.4
74437;BME280;62868;52.360;30.424;2023-03-16T21:09:07;1030;;;3.3;62.5
74437;BME280;62868;52.360;30.424;2023-03-16T21:14:10;1030;;;3.3;62.5
74437;BME280;62868;52.360;30.424;2023-03-16T21:18:52;1030;;;3.2;62.6
74437;BME280;62868;52.360;30.424;2023-03-16T21:24:07;1030;;;3.1;62.7
74437;BME280;62868;52.360;30.424;2023-03-16T21:28:38;1030;;;3.1;62.8
74437;BME280;62868;52.360;30.424;2023-03-16T21:33:51;1030.1;;;3.1;62.9
74437;BME280;62868;52.360;30.424;2023-03-16T21:39:09;1030.2;;;3.1;62.9
74437;BME280;62868;52.360;30.424;2023-03-16T21:44:22;1030.3;;;3.1;62.9
74437;BME280;62868;52.360;30.424;2023-03-16T21:48:31;1030.3;;;3.1;62.9
74437;BME280;62868;52.360;30.424;2023-03-16T21:54:08;1030.3;;;3.1;62.9
74437;BME280;62868;52.360;30.424;2023-03-16T21:59:22;1030.2;;;3;62.9
74437;BME280;62868;52.360;30.424;2023-03-16T22:03:51;1030.3;;;3.1;62.9
74437;BME280;62868;52.360;30.424;2023-03-16T22:08:52;1030.3;;;3.1;62.8
74437;BME280;62868;52.360;30.424;2023-03-16T22:13:45;1030.3;;;3.1;62.8
74437;BME280;62868;52.360;30.424;2023-03-16T22:19:23;1030.4;;;3.2;62.8
74437;BME280;62868;52.360;30.424;2023-03-16T22:23:52;1030.5;;;3.3;62.7
74437;BME280;62868;52.360;30.424;2023-03-16T22:28:55;1030.5;;;3.3;62.6
74437;BME280;62868;52.360;30.424;2023-03-16T22:34:24;1030.5;;;3.4;62.6
74437;BME280;62868;52.360;30.424;2023-03-16T22:38:54;1030.6;;;3.3;62.6
74437;BME280;62868;52.360;30.424;2023-03-16T22:43:31;1030.5;;;3.3;62.6
74437;BME280;62868;52.360;30.424;2023-03-16T22:49:05;1030.6;;;3.3;62.6
74437;BME280;62868;52.360;30.424;2023-03-16T22:54:23;1030.6;;;3.4;62.6
74437;BME280;62868;52.360;30.424;2023-03-16T22:58:41;1030.6;;;3.4;62.5
74437;BME280;62868;52.360;30.424;2023-03-16T23:04:21;1030.6;;;3.4;62.5
74437;BME280;62868;52.360;30.424;2023-03-16T23:09:23;1030.6;;;3.4;62.5
74437;BME280;62868;52.360;30.424;2023-03-16T23:13:30;1030.6;;;3.4;62.5
74437;BME280;62868;52.360;30.424;2023-03-16T23:18:52;1030.7;;;3.4;62.5
74437;BME280;62868;52.360;30.424;2023-03-16T23:24:07;1030.7;;;3.4;62.5
74437;BME280;62868;52.360;30.424;2023-03-16T23:29:08;1030.7;;;3.4;62.5
74437;BME280;62868;52.360;30.424;2023-03-16T23:34:09;1030.8;;;3.3;62.6
74437;BME280;62868;52.360;30.424;2023-03-16T23:39:06;1030.8;;;3.3;62.7
74437;BME280;62868;52.360;30.424;2023-03-16T23:44:11;1030.8;;;3.3;62.8
74437;BME280;62868;52.360;30.424;2023-03-16T23:48:32;1030.8;;;3.3;62.8
74437;BME280;62868;52.360;30.424;2023-03-16T23:53:59;1030.9;;;3.2;62.9
74437;BME280;62868;52.360;30.424;2023-03-16T23:58:51;1030.9;;;3.2;63
